sensor_id;sensor_type;location;lat;lon;timestamp;temperature;humidity
59855;DHT22;45732;52.850;6.896;2023-05-07T00:01:09;14.10;99.90
59855;DHT22;45732;52.850;6.896;2023-05-07T00:03:36;14.00;99.90
59855;DHT22;45732;52.850;6.896;2023-05-07T00:06:03;14.00;99.90
59855;DHT22;45732;52.850;6.896;2023-05-07T00:08:29;14.00;99.90
59855;DHT22;45732;52.850;6.896;2023-05-07T00:10:54;13.90;99.90
59855;DHT22;45732;52.850;6.896;2023-05-07T00:13:20;14.00;99.90
59855;DHT22;45732;52.850;6.896;2023-05-07T00:15:46;13.90;99.90
59855;DHT22;45732;52.850;6.896;2023-05-07T00:18:11;13.90;99.90
59855;DHT22;45732;52.850;6.896;2023-05-07T00:20:37;13.80;99.90
59855;DHT22;45732;52.850;6.896;2023-05-07T00:23:03;13.80;99.90
59855;DHT22;45732;52.850;6.896;2023-05-07T00:25:28;13.80;99.90
59855;DHT22;45732;52.850;6.896;2023-05-07T00:27:54;13.70;99.90
59855;DHT22;45732;52.850;6.896;2023-05-07T00:30:20;13.70;99.90
59855;DHT22;45732;52.850;6.896;2023-05-07T00:32:45;13.70;99.90
59855;DHT22;45732;52.850;6.896;2023-05-07T00:35:11;13.60;99.90
59855;DHT22;45732;52.850;6.896;2023-05-07T00:37:37;13.60;99.90
59855;DHT22;45732;52.850;6.896;2023-05-07T00:40:03;13.60;99.90
59855;DHT22;45732;52.850;6.896;2023-05-07T00:42:32;13.60;99.90
59855;DHT22;45732;52.850;6.896;2023-05-07T00:44:58;13.60;99.90
59855;DHT22;45732;52.850;6.896;2023-05-07T00:47:25;13.60;99.90
59855;DHT22;45732;52.850;6.896;2023-05-07T00:49:51;13.50;99.90
59855;DHT22;45732;52.850;6.896;2023-05-07T00:52:17;13.50;99.90
59855;DHT22;45732;52.850;6.896;2023-05-07T00:54:45;13.50;99.90
59855;DHT22;45732;52.850;6.896;2023-05-07T00:57:11;13.50;99.90
59855;DHT22;45732;52.850;6.896;2023-05-07T00:59:37;13.40;99.90
59855;DHT22;45732;52.850;6.896;2023-05-07T01:02:04;13.40;99.90
59855;DHT22;45732;52.850;6.896;2023-05-07T01:04:29;13.40;99.90
59855;DHT22;45732;52.850;6.896;2023-05-07T01:06:56;13.30;99.90
59855;DHT22;45732;52.850;6.896;2023-05-07T01:09:24;13.30;99.90
59855;DHT22;45732;52.850;6.896;2023-05-07T01:11:51;13.30;99.90
59855;DHT22;45732;52.850;6.896;2023-05-07T01:14:18;13.30;99.90
59855;DHT22;45732;52.850;6.896;2023-05-07T01:16:44;13.20;99.90
59855;DHT22;45732;52.850;6.896;2023-05-07T01:19:11;13.20;99.90
59855;DHT22;45732;52.850;6.896;2023-05-07T01:21:44;13.10;99.90
59855;DHT22;45732;52.850;6.896;2023-05-07T01:24:11;13.10;99.90
59855;DHT22;45732;52.850;6.896;2023-05-07T01:26:38;13.10;99.90
59855;DHT22;45732;52.850;6.896;2023-05-07T01:29:03;13.10;99.90
59855;DHT22;45732;52.850;6.896;2023-05-07T01:31:29;13.00;99.90
59855;DHT22;45732;52.850;6.896;2023-05-07T01:33:57;13.00;99.90
59855;DHT22;45732;52.850;6.896;2023-05-07T01:36:24;13.00;99.90
59855;DHT22;45732;52.850;6.896;2023-05-07T01:38:52;13.00;99.90
59855;DHT22;45732;52.850;6.896;2023-05-07T01:41:19;12.90;99.90
59855;DHT22;45732;52.850;6.896;2023-05-07T01:43:46;12.90;99.90
59855;DHT22;45732;52.850;6.896;2023-05-07T01:46:13;12.90;99.90
59855;DHT22;45732;52.850;6.896;2023-05-07T01:48:40;12.80;99.90
59855;DHT22;45732;52.850;6.896;2023-05-07T01:51:06;12.80;99.90
59855;DHT22;45732;52.850;6.896;2023-05-07T01:53:38;12.70;99.90
59855;DHT22;45732;52.850;6.896;2023-05-07T01:56:04;12.80;99.90
59855;DHT22;45732;52.850;6.896;2023-05-07T01:58:30;12.70;99.90
59855;DHT22;45732;52.850;6.896;2023-05-07T02:00:56;12.70;99.90
59855;DHT22;45732;52.850;6.896;2023-05-07T02:03:22;12.70;99.90
59855;DHT22;45732;52.850;6.896;2023-05-07T02:05:47;12.60;99.90
59855;DHT22;45732;52.850;6.896;2023-05-07T02:08:13;12.60;99.90
59855;DHT22;45732;52.850;6.896;2023-05-07T02:10:39;12.60;99.90
59855;DHT22;45732;52.850;6.896;2023-05-07T02:13:05;12.60;99.90
59855;DHT22;45732;52.850;6.896;2023-05-07T02:15:30;12.60;99.90
59855;DHT22;45732;52.850;6.896;2023-05-07T02:18:04;12.60;99.90
59855;DHT22;45732;52.850;6.896;2023-05-07T02:20:31;12.50;99.90
59855;DHT22;45732;52.850;6.896;2023-05-07T02:22:57;12.50;99.90
59855;DHT22;45732;52.850;6.896;2023-05-07T02:25:23;12.50;99.90
59855;DHT22;45732;52.850;6.896;2023-05-07T02:27:48;12.50;99.90
59855;DHT22;45732;52.850;6.896;2023-05-07T02:30:14;12.50;99.90
59855;DHT22;45732;52.850;6.896;2023-05-07T02:32:40;12.40;99.90
59855;DHT22;45732;52.850;6.896;2023-05-07T02:35:06;12.40;99.90
59855;DHT22;45732;52.850;6.896;2023-05-07T02:37:32;12.40;99.90
59855;DHT22;45732;52.850;6.896;2023-05-07T02:39:57;12.40;99.90
59855;DHT22;45732;52.850;6.896;2023-05-07T02:42:23;12.40;99.90
59855;DHT22;45732;52.850;6.896;2023-05-07T02:44:49;12.30;99.90
59855;DHT22;45732;52.850;6.896;2023-05-07T02:47:15;12.30;99.90
59855;DHT22;45732;52.850;6.896;2023-05-07T02:49:41;12.30;99.90
59855;DHT22;45732;52.850;6.896;2023-05-07T02:52:07;12.40;99.90
59855;DHT22;45732;52.850;6.896;2023-05-07T02:54:32;12.40;99.90
59855;DHT22;45732;52.850;6.896;2023-05-07T02:56:58;12.40;99.90
59855;DHT22;45732;52.850;6.896;2023-05-07T02:59:26;12.40;99.90
59855;DHT22;45732;52.850;6.896;2023-05-07T03:01:51;12.40;99.90
59855;DHT22;45732;52.850;6.896;2023-05-07T03:04:17;12.40;99.90
59855;DHT22;45732;52.850;6.896;2023-05-07T03:06:43;12.40;99.90
59855;DHT22;45732;52.850;6.896;2023-05-07T03:09:09;12.30;99.90
59855;DHT22;45732;52.850;6.896;2023-05-07T03:11:34;12.30;99.90
59855;DHT22;45732;52.850;6.896;2023-05-07T03:14:01;12.30;99.90
59855;DHT22;45732;52.850;6.896;2023-05-07T03:16:27;12.30;99.90
59855;DHT22;45732;52.850;6.896;2023-05-07T03:18:53;12.30;99.90
59855;DHT22;45732;52.850;6.896;2023-05-07T03:21:19;12.30;99.90
59855;DHT22;45732;52.850;6.896;2023-05-07T03:23:44;12.30;99.90
59855;DHT22;45732;52.850;6.896;2023-05-07T03:26:10;12.20;99.90
59855;DHT22;45732;52.850;6.896;2023-05-07T03:28:36;12.20;99.90
59855;DHT22;45732;52.850;6.896;2023-05-07T03:31:02;12.20;99.90
59855;DHT22;45732;52.850;6.896;2023-05-07T03:33:28;12.20;99.90
59855;DHT22;45732;52.850;6.896;2023-05-07T03:35:54;12.20;99.90
59855;DHT22;45732;52.850;6.896;2023-05-07T03:38:19;12.20;99.90
59855;DHT22;45732;52.850;6.896;2023-05-07T03:40:45;12.10;99.90
59855;DHT22;45732;52.850;6.896;2023-05-07T03:43:11;12.10;99.90
59855;DHT22;45732;52.850;6.896;2023-05-07T03:45:36;12.10;99.90
59855;DHT22;45732;52.850;6.896;2023-05-07T03:48:02;12.10;99.90
59855;DHT22;45732;52.850;6.896;2023-05-07T03:50:28;12.10;99.90
59855;DHT22;45732;52.850;6.896;2023-05-07T03:52:54;12.10;99.90
59855;DHT22;45732;52.850;6.896;2023-05-07T03:55:20;12.00;99.90
59855;DHT22;45732;52.850;6.896;2023-05-07T03:57:45;12.10;99.90
59855;DHT22;45732;52.850;6.896;2023-05-07T04:00:11;12.00;99.90
59855;DHT22;45732;52.850;6.896;2023-05-07T04:02:37;12.00;99.90
59855;DHT22;45732;52.850;6.896;2023-05-07T04:05:03;12.00;99.90
59855;DHT22;45732;52.850;6.896;2023-05-07T04:07:29;12.00;99.90
59855;DHT22;45732;52.850;6.896;2023-05-07T04:09:55;12.00;99.90
59855;DHT22;45732;52.850;6.896;2023-05-07T04:12:20;12.00;99.90
59855;DHT22;45732;52.850;6.896;2023-05-07T04:14:46;12.00;99.90
59855;DHT22;45732;52.850;6.896;2023-05-07T04:17:12;12.00;99.90
59855;DHT22;45732;52.850;6.896;2023-05-07T04:19:37;12.00;99.90
59855;DHT22;45732;52.850;6.896;2023-05-07T04:22:03;12.00;99.90
59855;DHT22;45732;52.850;6.896;2023-05-07T04:24:31;11.90;99.90
59855;DHT22;45732;52.850;6.896;2023-05-07T04:26:58;11.90;99.90
59855;DHT22;45732;52.850;6.896;2023-05-07T04:29:24;12.00;99.90
59855;DHT22;45732;52.850;6.896;2023-05-07T04:31:49;11.90;99.90
59855;DHT22;45732;52.850;6.896;2023-05-07T04:34:15;12.00;99.90
59855;DHT22;45732;52.850;6.896;2023-05-07T04:36:42;12.00;99.90
59855;DHT22;45732;52.850;6.896;2023-05-07T04:39:07;11.90;99.90
59855;DHT22;45732;52.850;6.896;2023-05-07T04:41:36;12.00;99.90
59855;DHT22;45732;52.850;6.896;2023-05-07T04:44:01;11.90;99.90
59855;DHT22;45732;52.850;6.896;2023-05-07T04:46:30;11.90;99.90
59855;DHT22;45732;52.850;6.896;2023-05-07T04:48:55;11.90;99.90
59855;DHT22;45732;52.850;6.896;2023-05-07T04:51:21;11.90;99.90
59855;DHT22;45732;52.850;6.896;2023-05-07T04:53:48;11.90;99.90
59855;DHT22;45732;52.850;6.896;2023-05-07T04:56:14;11.90;99.90
59855;DHT22;45732;52.850;6.896;2023-05-07T04:58:40;11.90;99.90
59855;DHT22;45732;52.850;6.896;2023-05-07T05:01:05;11.90;99.90
59855;DHT22;45732;52.850;6.896;2023-05-07T05:03:31;12.00;99.90
59855;DHT22;45732;52.850;6.896;2023-05-07T05:05:57;11.90;99.90
59855;DHT22;45732;52.850;6.896;2023-05-07T05:08:25;11.90;99.90
59855;DHT22;45732;52.850;6.896;2023-05-07T05:10:51;12.00;99.90
59855;DHT22;45732;52.850;6.896;2023-05-07T05:13:17;12.00;99.90
59855;DHT22;45732;52.850;6.896;2023-05-07T05:15:43;12.00;99.90
59855;DHT22;45732;52.850;6.896;2023-05-07T05:18:08;12.00;99.90
59855;DHT22;45732;52.850;6.896;2023-05-07T05:20:34;12.00;99.90
59855;DHT22;45732;52.850;6.896;2023-05-07T05:23:00;12.00;99.90
59855;DHT22;45732;52.850;6.896;2023-05-07T05:25:25;12.10;99.90
59855;DHT22;45732;52.850;6.896;2023-05-07T05:27:51;12.10;99.90
59855;DHT22;45732;52.850;6.896;2023-05-07T05:30:17;12.10;99.90
59855;DHT22;45732;52.850;6.896;2023-05-07T05:32:42;12.10;99.90
59855;DHT22;45732;52.850;6.896;2023-05-07T05:35:08;12.10;99.90
59855;DHT22;45732;52.850;6.896;2023-05-07T05:37:34;12.10;99.90
59855;DHT22;45732;52.850;6.896;2023-05-07T05:39:59;12.10;99.90
59855;DHT22;45732;52.850;6.896;2023-05-07T05:42:25;12.10;99.90
59855;DHT22;45732;52.850;6.896;2023-05-07T05:44:51;12.10;99.90
59855;DHT22;45732;52.850;6.896;2023-05-07T05:47:16;12.10;99.90
59855;DHT22;45732;52.850;6.896;2023-05-07T05:49:42;12.20;99.90
59855;DHT22;45732;52.850;6.896;2023-05-07T05:52:09;12.20;99.90
59855;DHT22;45732;52.850;6.896;2023-05-07T05:54:35;12.20;99.90
59855;DHT22;45732;52.850;6.896;2023-05-07T05:57:01;12.20;99.90
59855;DHT22;45732;52.850;6.896;2023-05-07T05:59:29;12.20;99.90
59855;DHT22;45732;52.850;6.896;2023-05-07T06:01:55;12.30;99.90
59855;DHT22;45732;52.850;6.896;2023-05-07T06:04:21;12.20;99.90
59855;DHT22;45732;52.850;6.896;2023-05-07T06:06:46;12.30;99.90
59855;DHT22;45732;52.850;6.896;2023-05-07T06:09:12;12.30;99.90
59855;DHT22;45732;52.850;6.896;2023-05-07T06:11:38;12.30;99.90
59855;DHT22;45732;52.850;6.896;2023-05-07T06:14:03;12.40;99.90
59855;DHT22;45732;52.850;6.896;2023-05-07T06:16:29;12.40;99.90
59855;DHT22;45732;52.850;6.896;2023-05-07T06:18:55;12.40;99.90
59855;DHT22;45732;52.850;6.896;2023-05-07T06:21:21;12.40;99.90
59855;DHT22;45732;52.850;6.896;2023-05-07T06:23:46;12.40;99.90
59855;DHT22;45732;52.850;6.896;2023-05-07T06:26:12;12.40;99.90
59855;DHT22;45732;52.850;6.896;2023-05-07T06:28:38;12.40;99.90
59855;DHT22;45732;52.850;6.896;2023-05-07T06:31:16;12.50;99.90
59855;DHT22;45732;52.850;6.896;2023-05-07T06:33:44;12.50;99.90
59855;DHT22;45732;52.850;6.896;2023-05-07T06:36:09;12.40;99.90
59855;DHT22;45732;52.850;6.896;2023-05-07T06:38:35;12.40;99.90
59855;DHT22;45732;52.850;6.896;2023-05-07T06:41:01;12.40;99.90
59855;DHT22;45732;52.850;6.896;2023-05-07T06:43:27;12.50;99.90
59855;DHT22;45732;52.850;6.896;2023-05-07T06:45:53;12.50;99.90
59855;DHT22;45732;52.850;6.896;2023-05-07T06:48:18;12.50;99.90
59855;DHT22;45732;52.850;6.896;2023-05-07T06:50:44;12.50;99.90
59855;DHT22;45732;52.850;6.896;2023-05-07T06:53:10;12.50;99.90
59855;DHT22;45732;52.850;6.896;2023-05-07T06:55:36;12.50;99.90
59855;DHT22;45732;52.850;6.896;2023-05-07T06:58:03;12.50;99.90
59855;DHT22;45732;52.850;6.896;2023-05-07T07:00:29;12.50;99.90
59855;DHT22;45732;52.850;6.896;2023-05-07T07:02:56;12.60;99.90
59855;DHT22;45732;52.850;6.896;2023-05-07T07:05:22;12.60;99.90
59855;DHT22;45732;52.850;6.896;2023-05-07T07:07:48;12.60;99.90
59855;DHT22;45732;52.850;6.896;2023-05-07T07:10:21;12.60;99.90
59855;DHT22;45732;52.850;6.896;2023-05-07T07:12:47;12.60;99.90
59855;DHT22;45732;52.850;6.896;2023-05-07T07:15:14;12.70;99.90
59855;DHT22;45732;52.850;6.896;2023-05-07T07:17:40;12.70;99.90
59855;DHT22;45732;52.850;6.896;2023-05-07T07:20:06;12.70;99.90
59855;DHT22;45732;52.850;6.896;2023-05-07T07:22:32;12.70;99.90
59855;DHT22;45732;52.850;6.896;2023-05-07T07:24:58;12.80;99.90
59855;DHT22;45732;52.850;6.896;2023-05-07T07:27:24;12.80;99.90
59855;DHT22;45732;52.850;6.896;2023-05-07T07:29:49;12.80;99.90
59855;DHT22;45732;52.850;6.896;2023-05-07T07:32:15;12.80;99.90
59855;DHT22;45732;52.850;6.896;2023-05-07T07:34:41;12.90;99.90
59855;DHT22;45732;52.850;6.896;2023-05-07T07:37:06;13.00;99.90
59855;DHT22;45732;52.850;6.896;2023-05-07T07:39:33;13.10;99.90
59855;DHT22;45732;52.850;6.896;2023-05-07T07:41:58;13.10;99.90
59855;DHT22;45732;52.850;6.896;2023-05-07T07:44:25;13.10;99.90
59855;DHT22;45732;52.850;6.896;2023-05-07T07:46:50;13.10;99.90
59855;DHT22;45732;52.850;6.896;2023-05-07T07:49:16;13.20;99.90
59855;DHT22;45732;52.850;6.896;2023-05-07T07:51:42;13.20;99.90
59855;DHT22;45732;52.850;6.896;2023-05-07T07:54:08;13.30;99.90
59855;DHT22;45732;52.850;6.896;2023-05-07T07:56:34;13.20;99.90
59855;DHT22;45732;52.850;6.896;2023-05-07T07:59:00;13.10;99.90
59855;DHT22;45732;52.850;6.896;2023-05-07T08:01:26;13.10;99.90
59855;DHT22;45732;52.850;6.896;2023-05-07T08:03:52;13.10;99.90
59855;DHT22;45732;52.850;6.896;2023-05-07T08:06:18;13.00;99.90
59855;DHT22;45732;52.850;6.896;2023-05-07T08:08:44;13.00;99.90
59855;DHT22;45732;52.850;6.896;2023-05-07T08:11:10;13.00;99.90
59855;DHT22;45732;52.850;6.896;2023-05-07T08:13:36;13.10;99.90
59855;DHT22;45732;52.850;6.896;2023-05-07T08:16:02;13.10;99.90
59855;DHT22;45732;52.850;6.896;2023-05-07T08:18:28;13.20;99.90
59855;DHT22;45732;52.850;6.896;2023-05-07T08:20:54;13.30;99.90
59855;DHT22;45732;52.850;6.896;2023-05-07T08:23:21;13.30;99.90
59855;DHT22;45732;52.850;6.896;2023-05-07T08:25:46;13.40;99.90
59855;DHT22;45732;52.850;6.896;2023-05-07T08:28:12;13.40;99.90
59855;DHT22;45732;52.850;6.896;2023-05-07T08:30:38;13.50;99.90
59855;DHT22;45732;52.850;6.896;2023-05-07T08:33:04;13.50;99.90
59855;DHT22;45732;52.850;6.896;2023-05-07T08:35:29;13.60;99.90
59855;DHT22;45732;52.850;6.896;2023-05-07T08:37:55;13.60;99.90
59855;DHT22;45732;52.850;6.896;2023-05-07T08:40:25;13.60;99.90
59855;DHT22;45732;52.850;6.896;2023-05-07T08:42:53;13.60;99.90
59855;DHT22;45732;52.850;6.896;2023-05-07T08:45:20;13.60;99.90
59855;DHT22;45732;52.850;6.896;2023-05-07T08:47:58;13.70;99.90
59855;DHT22;45732;52.850;6.896;2023-05-07T08:50:25;13.80;99.90
59855;DHT22;45732;52.850;6.896;2023-05-07T08:52:50;13.90;99.90
59855;DHT22;45732;52.850;6.896;2023-05-07T08:55:17;14.10;99.90
59855;DHT22;45732;52.850;6.896;2023-05-07T08:57:43;14.30;99.90
59855;DHT22;45732;52.850;6.896;2023-05-07T09:00:09;14.40;99.90
59855;DHT22;45732;52.850;6.896;2023-05-07T09:02:36;14.60;99.90
59855;DHT22;45732;52.850;6.896;2023-05-07T09:05:02;14.70;99.90
59855;DHT22;45732;52.850;6.896;2023-05-07T09:07:28;14.90;99.90
59855;DHT22;45732;52.850;6.896;2023-05-07T09:09:55;15.10;99.90
59855;DHT22;45732;52.850;6.896;2023-05-07T09:12:21;15.20;99.90
59855;DHT22;45732;52.850;6.896;2023-05-07T09:14:47;15.20;99.90
59855;DHT22;45732;52.850;6.896;2023-05-07T09:17:13;15.30;99.90
59855;DHT22;45732;52.850;6.896;2023-05-07T09:19:40;15.30;99.90
59855;DHT22;45732;52.850;6.896;2023-05-07T09:22:06;15.30;99.90
59855;DHT22;45732;52.850;6.896;2023-05-07T09:24:35;15.40;99.90
59855;DHT22;45732;52.850;6.896;2023-05-07T09:27:04;15.40;99.90
59855;DHT22;45732;52.850;6.896;2023-05-07T09:29:30;15.60;99.90
59855;DHT22;45732;52.850;6.896;2023-05-07T09:32:01;15.70;99.90
59855;DHT22;45732;52.850;6.896;2023-05-07T09:34:29;15.90;99.90
59855;DHT22;45732;52.850;6.896;2023-05-07T09:36:55;16.00;99.90
59855;DHT22;45732;52.850;6.896;2023-05-07T09:39:23;16.10;99.90
59855;DHT22;45732;52.850;6.896;2023-05-07T09:41:49;16.20;99.90
59855;DHT22;45732;52.850;6.896;2023-05-07T09:44:16;16.20;99.90
59855;DHT22;45732;52.850;6.896;2023-05-07T09:46:43;16.30;99.90
59855;DHT22;45732;52.850;6.896;2023-05-07T09:49:20;16.20;99.90
59855;DHT22;45732;52.850;6.896;2023-05-07T09:51:51;16.10;99.90
59855;DHT22;45732;52.850;6.896;2023-05-07T09:54:18;16.10;99.90
59855;DHT22;45732;52.850;6.896;2023-05-07T09:56:52;15.90;99.90
59855;DHT22;45732;52.850;6.896;2023-05-07T09:59:18;15.90;99.90
59855;DHT22;45732;52.850;6.896;2023-05-07T10:01:45;15.90;99.90
59855;DHT22;45732;52.850;6.896;2023-05-07T10:04:11;15.90;99.90
59855;DHT22;45732;52.850;6.896;2023-05-07T10:06:38;15.80;99.90
59855;DHT22;45732;52.850;6.896;2023-05-07T10:09:04;15.80;99.90
59855;DHT22;45732;52.850;6.896;2023-05-07T10:11:32;15.90;99.90
59855;DHT22;45732;52.850;6.896;2023-05-07T10:13:59;16.00;99.90
59855;DHT22;45732;52.850;6.896;2023-05-07T10:16:34;16.00;99.90
59855;DHT22;45732;52.850;6.896;2023-05-07T10:19:05;16.20;99.90
59855;DHT22;45732;52.850;6.896;2023-05-07T10:21:36;16.30;99.90
59855;DHT22;45732;52.850;6.896;2023-05-07T10:24:09;16.30;99.90
59855;DHT22;45732;52.850;6.896;2023-05-07T10:26:42;16.30;99.90
59855;DHT22;45732;52.850;6.896;2023-05-07T10:29:25;16.30;99.90
59855;DHT22;45732;52.850;6.896;2023-05-07T10:34:34;16.10;99.90
59855;DHT22;45732;52.850;6.896;2023-05-07T10:37:02;16.20;99.90
59855;DHT22;45732;52.850;6.896;2023-05-07T10:39:28;16.20;99.90
59855;DHT22;45732;52.850;6.896;2023-05-07T10:41:54;16.30;99.90
59855;DHT22;45732;52.850;6.896;2023-05-07T10:44:29;16.50;99.90
59855;DHT22;45732;52.850;6.896;2023-05-07T10:47:12;16.60;99.90
59855;DHT22;45732;52.850;6.896;2023-05-07T10:52:30;16.80;99.90
59855;DHT22;45732;52.850;6.896;2023-05-07T10:57:40;17.10;99.90
59855;DHT22;45732;52.850;6.896;2023-05-07T11:03:10;17.30;99.90
59855;DHT22;45732;52.850;6.896;2023-05-07T11:05:37;17.20;99.90
59855;DHT22;45732;52.850;6.896;2023-05-07T11:08:04;17.30;99.90
59855;DHT22;45732;52.850;6.896;2023-05-07T11:13:18;17.50;99.90
59855;DHT22;45732;52.850;6.896;2023-05-07T11:15:45;17.50;99.90
59855;DHT22;45732;52.850;6.896;2023-05-07T11:18:16;17.60;99.90
59855;DHT22;45732;52.850;6.896;2023-05-07T11:20:58;17.70;99.90
59855;DHT22;45732;52.850;6.896;2023-05-07T11:28:30;17.80;99.90
59855;DHT22;45732;52.850;6.896;2023-05-07T11:30:56;17.90;99.90
59855;DHT22;45732;52.850;6.896;2023-05-07T11:33:22;17.90;99.90
59855;DHT22;45732;52.850;6.896;2023-05-07T11:35:48;17.90;99.90
59855;DHT22;45732;52.850;6.896;2023-05-07T11:38:17;17.90;99.90
59855;DHT22;45732;52.850;6.896;2023-05-07T11:40:54;18.00;99.90
59855;DHT22;45732;52.850;6.896;2023-05-07T11:43:20;18.20;99.90
59855;DHT22;45732;52.850;6.896;2023-05-07T11:45:47;18.30;99.90
59855;DHT22;45732;52.850;6.896;2023-05-07T11:48:13;18.30;99.90
59855;DHT22;45732;52.850;6.896;2023-05-07T11:50:53;18.30;99.90
59855;DHT22;45732;52.850;6.896;2023-05-07T11:53:20;18.30;99.90
59855;DHT22;45732;52.850;6.896;2023-05-07T11:55:52;18.30;99.90
59855;DHT22;45732;52.850;6.896;2023-05-07T11:58:23;18.30;99.90
59855;DHT22;45732;52.850;6.896;2023-05-07T12:00:53;18.20;99.90
59855;DHT22;45732;52.850;6.896;2023-05-07T12:03:20;18.20;99.90
59855;DHT22;45732;52.850;6.896;2023-05-07T12:05:47;18.30;99.90
59855;DHT22;45732;52.850;6.896;2023-05-07T12:08:20;18.20;99.90
59855;DHT22;45732;52.850;6.896;2023-05-07T12:10:48;18.20;99.90
59855;DHT22;45732;52.850;6.896;2023-05-07T12:13:26;18.10;99.90
59855;DHT22;45732;52.850;6.896;2023-05-07T12:15:53;18.20;99.90
59855;DHT22;45732;52.850;6.896;2023-05-07T12:18:20;18.20;99.90
59855;DHT22;45732;52.850;6.896;2023-05-07T12:20:46;18.20;99.90
59855;DHT22;45732;52.850;6.896;2023-05-07T12:23:12;18.20;99.90
59855;DHT22;45732;52.850;6.896;2023-05-07T12:25:39;18.10;99.90
59855;DHT22;45732;52.850;6.896;2023-05-07T12:28:07;18.20;99.90
59855;DHT22;45732;52.850;6.896;2023-05-07T12:30:37;18.30;99.90
59855;DHT22;45732;52.850;6.896;2023-05-07T12:33:03;18.40;99.90
59855;DHT22;45732;52.850;6.896;2023-05-07T12:35:29;18.50;99.90
59855;DHT22;45732;52.850;6.896;2023-05-07T12:37:57;18.60;99.90
59855;DHT22;45732;52.850;6.896;2023-05-07T12:40:24;18.70;99.90
59855;DHT22;45732;52.850;6.896;2023-05-07T12:42:53;18.70;99.90
59855;DHT22;45732;52.850;6.896;2023-05-07T12:45:20;18.80;99.90
59855;DHT22;45732;52.850;6.896;2023-05-07T12:47:47;18.90;99.90
59855;DHT22;45732;52.850;6.896;2023-05-07T12:50:13;18.90;99.90
59855;DHT22;45732;52.850;6.896;2023-05-07T12:52:39;19.00;99.90
59855;DHT22;45732;52.850;6.896;2023-05-07T12:55:08;19.00;99.90
59855;DHT22;45732;52.850;6.896;2023-05-07T12:57:38;18.90;99.90
59855;DHT22;45732;52.850;6.896;2023-05-07T13:00:05;18.80;99.90
59855;DHT22;45732;52.850;6.896;2023-05-07T13:02:38;18.70;99.90
59855;DHT22;45732;52.850;6.896;2023-05-07T13:05:04;18.80;99.90
59855;DHT22;45732;52.850;6.896;2023-05-07T13:07:30;18.80;99.90
59855;DHT22;45732;52.850;6.896;2023-05-07T13:09:56;18.70;99.90
59855;DHT22;45732;52.850;6.896;2023-05-07T13:12:21;18.60;99.90
59855;DHT22;45732;52.850;6.896;2023-05-07T13:14:47;18.50;99.90
59855;DHT22;45732;52.850;6.896;2023-05-07T13:17:13;18.50;99.90
59855;DHT22;45732;52.850;6.896;2023-05-07T13:19:38;18.40;99.90
59855;DHT22;45732;52.850;6.896;2023-05-07T13:22:05;18.30;99.90
59855;DHT22;45732;52.850;6.896;2023-05-07T13:24:31;18.30;99.90
59855;DHT22;45732;52.850;6.896;2023-05-07T13:26:57;18.30;99.90
59855;DHT22;45732;52.850;6.896;2023-05-07T13:29:22;18.30;99.90
59855;DHT22;45732;52.850;6.896;2023-05-07T13:31:57;18.30;99.90
59855;DHT22;45732;52.850;6.896;2023-05-07T13:34:23;18.10;99.90
59855;DHT22;45732;52.850;6.896;2023-05-07T13:36:49;18.10;99.90
59855;DHT22;45732;52.850;6.896;2023-05-07T13:39:14;18.00;99.90
59855;DHT22;45732;52.850;6.896;2023-05-07T13:41:41;18.10;99.90
59855;DHT22;45732;52.850;6.896;2023-05-07T13:44:06;18.00;99.90
59855;DHT22;45732;52.850;6.896;2023-05-07T13:46:32;18.10;99.90
59855;DHT22;45732;52.850;6.896;2023-05-07T13:48:58;18.10;99.90
59855;DHT22;45732;52.850;6.896;2023-05-07T13:51:23;18.10;99.90
59855;DHT22;45732;52.850;6.896;2023-05-07T13:53:49;18.30;99.90
59855;DHT22;45732;52.850;6.896;2023-05-07T13:56:15;18.30;99.90
59855;DHT22;45732;52.850;6.896;2023-05-07T13:58:41;18.30;99.90
59855;DHT22;45732;52.850;6.896;2023-05-07T14:01:07;18.40;99.90
59855;DHT22;45732;52.850;6.896;2023-05-07T14:03:33;18.50;99.90
59855;DHT22;45732;52.850;6.896;2023-05-07T14:05:59;18.60;99.90
59855;DHT22;45732;52.850;6.896;2023-05-07T14:08:27;18.50;99.90
59855;DHT22;45732;52.850;6.896;2023-05-07T14:10:53;18.50;99.90
59855;DHT22;45732;52.850;6.896;2023-05-07T14:13:19;18.50;99.90
59855;DHT22;45732;52.850;6.896;2023-05-07T14:15:45;18.40;99.90
59855;DHT22;45732;52.850;6.896;2023-05-07T14:18:15;18.30;99.90
59855;DHT22;45732;52.850;6.896;2023-05-07T14:20:41;18.30;99.90
59855;DHT22;45732;52.850;6.896;2023-05-07T14:23:09;18.20;99.90
59855;DHT22;45732;52.850;6.896;2023-05-07T14:25:35;18.10;99.90
59855;DHT22;45732;52.850;6.896;2023-05-07T14:28:00;18.00;99.90
59855;DHT22;45732;52.850;6.896;2023-05-07T14:30:26;18.00;99.90
59855;DHT22;45732;52.850;6.896;2023-05-07T14:32:52;17.90;99.90
59855;DHT22;45732;52.850;6.896;2023-05-07T14:35:17;17.80;99.90
59855;DHT22;45732;52.850;6.896;2023-05-07T14:37:43;17.80;99.90
59855;DHT22;45732;52.850;6.896;2023-05-07T14:40:09;17.80;99.90
59855;DHT22;45732;52.850;6.896;2023-05-07T14:42:35;17.70;99.90
59855;DHT22;45732;52.850;6.896;2023-05-07T14:45:01;17.70;99.90
59855;DHT22;45732;52.850;6.896;2023-05-07T14:47:27;17.70;99.90
59855;DHT22;45732;52.850;6.896;2023-05-07T14:49:53;17.70;99.90
59855;DHT22;45732;52.850;6.896;2023-05-07T14:52:20;17.70;99.90
59855;DHT22;45732;52.850;6.896;2023-05-07T14:54:45;17.70;99.90
59855;DHT22;45732;52.850;6.896;2023-05-07T14:57:13;17.60;99.90
59855;DHT22;45732;52.850;6.896;2023-05-07T14:59:40;17.60;99.90
59855;DHT22;45732;52.850;6.896;2023-05-07T15:02:06;17.50;99.90
59855;DHT22;45732;52.850;6.896;2023-05-07T15:04:33;17.50;99.90
59855;DHT22;45732;52.850;6.896;2023-05-07T15:06:59;17.40;99.90
59855;DHT22;45732;52.850;6.896;2023-05-07T15:09:25;17.30;99.90
59855;DHT22;45732;52.850;6.896;2023-05-07T15:11:51;17.20;99.90
59855;DHT22;45732;52.850;6.896;2023-05-07T15:14:17;17.20;99.90
59855;DHT22;45732;52.850;6.896;2023-05-07T15:16:43;17.20;99.90
59855;DHT22;45732;52.850;6.896;2023-05-07T15:19:09;17.20;99.90
59855;DHT22;45732;52.850;6.896;2023-05-07T15:21:35;17.20;99.90
59855;DHT22;45732;52.850;6.896;2023-05-07T15:24:02;17.20;99.90
59855;DHT22;45732;52.850;6.896;2023-05-07T15:26:28;17.20;99.90
59855;DHT22;45732;52.850;6.896;2023-05-07T15:28:54;17.20;99.90
59855;DHT22;45732;52.850;6.896;2023-05-07T15:31:25;17.30;99.90
59855;DHT22;45732;52.850;6.896;2023-05-07T15:33:51;17.30;99.90
59855;DHT22;45732;52.850;6.896;2023-05-07T15:36:21;17.40;99.90
59855;DHT22;45732;52.850;6.896;2023-05-07T15:38:47;17.40;99.90
59855;DHT22;45732;52.850;6.896;2023-05-07T15:41:13;17.60;99.90
59855;DHT22;45732;52.850;6.896;2023-05-07T15:43:47;17.60;99.90
59855;DHT22;45732;52.850;6.896;2023-05-07T15:46:17;17.60;99.90